Time;durP1;ratioP1;P1;durP2;ratioP2;P2;SDS_P1;SDS_P2;PMS_P1;PMS_P2;Temp;Humidity;BMP_temperature;BMP_pressure;BME280_temperature;BME280_humidity;BME280_pressure;Samples;Min_cycle;Max_cycle;Signal;HPM_P1;HPM_P2
2021/12/27 10:48:21;;;;;;;10.63;6.13;;;;;;;4.65;100.00;97662.72;5108711;27;20566;-86
2021/12/27 10:50:49;;;;;;;10.73;6.30;;;;;;;5.37;100.00;97675.03;5084792;28;39018;-83
2021/12/27 10:53:17;;;;;;;10.40;5.87;;;;;;;5.83;100.00;97648.56;5102049;27;40775;-86
2021/12/27 10:55:48;;;;;;;9.17;5.37;;;;;;;6.31;100.00;97649.88;5090669;28;41484;-85
2021/12/27 10:58:19;;;;;;;10.30;6.00;;;;;;;6.61;100.00;97633.06;5108072;28;41395;-88
2021/12/27 11:00:49;;;;;;;10.93;6.07;;;;;;;7.31;100.00;97671.28;5090165;28;38754;-87
2021/12/27 11:03:33;;;;;;;9.30;5.90;;;;;;;7.50;100.00;97647.16;5090892;28;42020;-85
2021/12/27 11:06:03;;;;;;;9.40;5.40;;;;;;;7.82;100.00;97684.41;5090905;28;41868;-89
2021/12/27 11:08:32;;;;;;;10.70;5.73;;;;;;;7.83;99.88;97675.56;5090262;28;42458;-85
2021/12/27 11:11:00;;;;;;;9.87;4.90;;;;;;;8.02;99.19;97680.41;5124498;27;39974;-87
2021/12/27 11:13:29;;;;;;;10.00;5.93;;;;;;;8.09;97.80;97682.47;5104535;28;40492;-86
2021/12/27 11:15:57;;;;;;;10.07;5.40;;;;;;;8.09;97.12;97671.94;5077063;28;42198;-87
2021/12/27 11:18:25;;;;;;;9.57;5.77;;;;;;;8.24;96.64;97696.38;5107280;28;41982;-86
2021/12/27 11:20:56;;;;;;;10.30;5.33;;;;;;;8.16;95.71;97682.91;5107813;27;39070;-88
2021/12/27 11:23:26;;;;;;;12.13;5.73;;;;;;;8.02;95.47;97646.97;5105851;27;42432;-89
2021/12/27 11:26:02;;;;;;;8.33;4.83;;;;;;;8.06;94.38;97666.88;5090278;28;42708;-85
2021/12/27 11:28:32;;;;;;;10.70;6.00;;;;;;;8.04;94.01;97652.09;5113502;27;42135;-88
2021/12/27 11:31:03;;;;;;;9.97;6.07;;;;;;;8.21;93.18;97663.16;5120795;27;39761;-87
2021/12/27 11:33:30;;;;;;;8.13;5.37;;;;;;;8.27;92.92;97649.53;5090255;28;41267;-90
2021/12/27 11:36:10;;;;;;;8.30;4.93;;;;;;;8.36;93.16;97660.38;5090312;28;41894;-90
2021/12/27 11:38:41;;;;;;;8.67;5.40;;;;;;;8.28;91.16;97651.19;5093695;28;41559;-87
2021/12/27 11:41:28;;;;;;;11.27;6.17;;;;;;;8.02;91.52;97603.94;5090844;28;38995;-85
2021/12/27 11:43:58;;;;;;;6.17;4.30;;;;;;;8.33;91.59;97656.19;5086667;28;40167;-86
2021/12/27 11:46:28;;;;;;;7.63;4.37;;;;;;;8.34;91.29;97664.94;5087469;28;42746;-87
2021/12/27 11:48:59;;;;;;;8.13;4.73;;;;;;;8.32;91.12;97651.84;5107873;28;41279;-87
2021/12/27 11:51:34;;;;;;;10.43;5.17;;;;;;;8.38;90.54;97629.47;5095038;27;39087;-88
2021/12/27 11:54:03;;;;;;;9.00;4.53;;;;;;;8.73;90.03;97647.97;5086166;28;40399;-89
2021/12/27 11:56:48;;;;;;;9.53;5.83;;;;;;;8.96;89.19;97647.94;5089302;28;41921;-88
2021/12/27 11:59:32;;;;;;;10.40;5.83;;;;;;;8.99;88.67;97637.16;5074754;28;42165;-84
2021/12/27 12:02:01;;;;;;;10.07;4.73;;;;;;;9.06;88.34;97639.31;5060386;28;39488;-84
2021/12/27 12:04:45;;;;;;;7.37;4.77;;;;;;;9.11;88.31;97645.94;5084331;28;41914;-88
2021/12/27 12:07:54;;;;;;;9.47;5.60;;;;;;;9.10;88.45;97638.13;5075303;28;42055;-90
2021/12/27 12:10:23;;;;;;;8.90;5.10;;;;;;;9.08;87.37;97629.47;5081771;28;41034;-87
2021/12/27 12:13:27;;;;;;;8.87;5.17;;;;;;;9.07;86.18;97628.66;5099481;28;40530;-86
2021/12/27 12:16:08;;;;;;;9.83;6.03;;;;;;;9.08;86.02;97625.03;5028717;28;43022;-85
2021/12/27 12:18:39;;;;;;;9.37;5.07;;;;;;;9.09;86.35;97631.16;5062429;28;42872;-89
2021/12/27 12:21:07;;;;;;;9.57;4.43;;;;;;;9.10;86.86;97632.84;5076513;28;41119;-89
2021/12/27 12:23:37;;;;;;;9.70;5.50;;;;;;;8.97;86.24;97617.09;5093520;28;39206;-90
2021/12/27 12:26:06;;;;;;;7.50;4.30;;;;;;;9.02;86.04;97635.25;5076711;28;42598;-87
2021/12/27 12:28:34;;;;;;;8.30;4.50;;;;;;;8.84;85.88;97606.63;5076068;28;41466;-88
2021/12/27 12:31:02;;;;;;;9.53;4.77;;;;;;;8.94;85.69;97623.44;5075774;28;41130;-88
2021/12/27 12:33:30;;;;;;;11.40;4.97;;;;;;;8.89;86.34;97609.78;5076670;28;39889;-88
2021/12/27 12:36:01;;;;;;;10.50;5.70;;;;;;;8.97;86.25;97622.38;5062512;28;40434;-89
2021/12/27 12:38:30;;;;;;;7.53;4.73;;;;;;;8.89;85.70;97609.78;5072740;28;42098;-87
2021/12/27 12:41:04;;;;;;;8.33;5.20;;;;;;;8.90;85.93;97595.59;5071066;28;41242;-88
2021/12/27 12:43:39;;;;;;;13.57;5.93;;;;;;;9.10;86.03;97623.13;5076394;28;38825;-87
2021/12/27 12:46:21;;;;;;;8.53;4.80;;;;;;;9.05;85.32;97600.66;5090226;28;42880;-87
2021/12/27 12:49:05;;;;;;;6.77;4.07;;;;;;;9.12;85.43;97604.53;5075845;28;41493;-86
2021/12/27 12:51:41;;;;;;;10.00;5.13;;;;;;;9.06;85.21;97583.84;5090379;28;41374;-90
2021/12/27 12:54:23;;;;;;;9.00;4.60;;;;;;;9.19;84.29;97609.22;5075663;28;40367;-84
2021/12/27 12:56:54;;;;;;;11.00;5.53;;;;;;;9.10;83.95;97602.00;5071935;28;41046;-89
2021/12/27 12:59:23;;;;;;;8.50;5.13;;;;;;;9.11;84.33;97598.41;5051125;28;41832;-88
2021/12/27 13:02:00;;;;;;;9.97;5.70;;;;;;;9.08;84.83;97597.78;5055338;28;40723;-88
2021/12/27 13:04:46;;;;;;;8.83;5.50;;;;;;;9.07;84.48;97585.53;5080354;28;40696;-87
2021/12/27 13:07:15;;;;;;;10.73;5.47;;;;;;;9.17;84.42;97591.81;5075741;28;42089;-88
2021/12/27 13:09:45;;;;;;;8.87;4.93;;;;;;;9.05;84.10;97583.03;5074743;28;41904;-88
2021/12/27 13:12:21;;;;;;;10.67;4.77;;;;;;;9.06;84.23;97594.41;5075845;28;41477;-86
2021/12/27 13:14:49;;;;;;;11.37;5.33;;;;;;;9.08;84.83;97584.59;5075266;28;38897;-86
2021/12/27 13:17:18;;;;;;;9.03;5.17;;;;;;;9.20;84.37;97591.56;5092306;28;41955;-86
2021/12/27 13:20:01;;;;;;;9.73;6.07;;;;;;;8.93;83.78;97557.56;5074986;28;41835;-89
2021/12/27 13:22:40;;;;;;;8.20;4.87;;;;;;;9.05;83.94;97588.31;5093835;28;44621;-86
2021/12/27 13:25:09;;;;;;;7.60;5.07;;;;;;;8.98;83.97;97581.81;5075586;28;39223;-86
2021/12/27 13:27:39;;;;;;;7.30;4.50;;;;;;;8.93;84.41;97568.97;5074721;28;40598;-84
2021/12/27 13:30:09;;;;;;;7.83;4.23;;;;;;;8.99;83.56;97586.16;5074821;28;41516;-84
2021/12/27 13:32:36;;;;;;;8.27;5.03;;;;;;;9.05;84.61;97595.38;5076591;28;41150;-83
2021/12/27 13:35:05;;;;;;;7.80;5.23;;;;;;;8.96;83.85;97576.66;5075328;28;38788;-86
2021/12/27 13:37:36;;;;;;;7.17;4.33;;;;;;;8.96;83.71;97589.84;5091891;28;42703;-83
2021/12/27 13:40:11;;;;;;;9.47;4.83;;;;;;;8.95;83.78;97593.44;5074863;28;41833;-86
2021/12/27 13:42:41;;;;;;;9.27;5.47;;;;;;;8.88;83.75;97579.03;5075979;28;41260;-84
2021/12/27 13:45:11;;;;;;;9.27;5.53;;;;;;;8.91;83.43;97597.28;5075289;28;39076;-85
2021/12/27 13:47:48;;;;;;;10.67;5.63;;;;;;;8.74;83.53;97573.13;5058659;28;40733;-86
2021/12/27 13:50:15;;;;;;;7.50;4.23;;;;;;;8.76;83.64;97577.34;5118192;27;42474;-83
2021/12/27 13:52:45;;;;;;;9.40;5.03;;;;;;;8.78;83.73;97580.69;5062430;28;41038;-86
2021/12/27 13:55:25;;;;;;;9.63;4.60;;;;;;;8.75;83.83;97586.22;5074257;28;38904;-86
2021/12/27 13:57:55;;;;;;;6.53;4.50;;;;;;;8.70;83.89;97580.41;5094116;28;40489;-85
2021/12/27 14:00:27;;;;;;;7.57;4.50;;;;;;;8.65;84.22;97586.03;5077722;28;42873;-87
2021/12/27 14:02:58;;;;;;;8.77;5.47;;;;;;;8.74;83.95;97589.81;5075364;28;42682;-84
2021/12/27 14:05:28;;;;;;;9.97;5.43;;;;;;;8.63;84.06;97579.22;5088462;28;40684;-87
2021/12/27 14:08:11;;;;;;;8.83;5.47;;;;;;;8.68;83.98;97595.53;5073261;28;40757;-83
2021/12/27 14:10:39;;;;;;;10.30;5.03;;;;;;;8.57;84.20;97574.38;5088169;28;43556;-84
2021/12/27 14:13:08;;;;;;;9.13;4.83;;;;;;;8.62;83.97;97590.72;5074074;28;41093;-84
2021/12/27 14:15:38;;;;;;;6.87;4.27;;;;;;;8.44;83.84;97565.69;5070404;28;38661;-87
2021/12/27 14:18:11;;;;;;;8.23;4.67;;;;;;;8.53;84.30;97589.59;5074472;28;40910;-84
2021/12/27 14:20:39;;;;;;;10.90;4.70;;;;;;;8.55;84.16;97600.88;5090413;28;41573;-84
2021/12/27 14:23:08;;;;;;;7.23;5.30;;;;;;;8.54;84.17;97603.63;5070949;28;42509;-86
2021/12/27 14:25:36;;;;;;;8.87;5.20;;;;;;;8.44;84.41;97594.72;5074033;28;38408;-85
2021/12/27 14:28:09;;;;;;;10.27;5.50;;;;;;;8.44;84.43;97592.06;5074029;28;41789;-83
2021/12/27 14:30:42;;;;;;;8.17;4.73;;;;;;;8.51;84.30;97603.88;5074264;28;41740;-84
2021/12/27 14:33:11;;;;;;;8.33;4.27;;;;;;;8.48;84.71;97604.09;5092031;28;41194;-87
2021/12/27 14:35:41;;;;;;;8.67;4.03;;;;;;;8.47;84.88;97602.41;5096082;28;39129;-85
2021/12/27 14:38:12;;;;;;;8.47;4.87;;;;;;;8.40;84.90;97596.75;5094948;28;40531;-82
2021/12/27 14:40:42;;;;;;;9.47;4.93;;;;;;;8.35;84.71;97590.13;5096850;28;42041;-81
2021/12/27 14:43:11;;;;;;;9.27;5.17;;;;;;;8.38;84.90;97603.09;5104383;27;41468;-85
2021/12/27 14:45:41;;;;;;;7.57;4.57;;;;;;;8.29;84.79;97597.50;5101217;27;39906;-86
2021/12/27 14:48:12;;;;;;;9.53;4.50;;;;;;;8.37;84.71;97607.53;5087468;28;41934;-85
2021/12/27 14:50:41;;;;;;;7.97;5.03;;;;;;;8.28;84.95;97603.72;5082048;28;42194;-84
2021/12/27 14:53:10;;;;;;;9.07;4.77;;;;;;;8.29;85.06;97605.41;5102644;28;41222;-84
2021/12/27 14:55:40;;;;;;;8.70;4.17;;;;;;;8.27;84.94;97594.16;5106659;28;40295;-84
2021/12/27 14:58:10;;;;;;;6.17;4.20;;;;;;;8.37;84.78;97606.69;5075142;28;41059;-84
2021/12/27 15:00:42;;;;;;;8.37;4.80;;;;;;;8.38;85.17;97608.38;5102288;28;41905;-87
2021/12/27 15:03:10;;;;;;;9.90;5.70;;;;;;;8.27;85.04;97591.50;5080493;28;40857;-89
